Craig, Montana
Current Conditions -  °F | °C
As of 5:53 AM on Saturday 20 Dec 2014 (Local Time) from KHLN Reporting Station
Clear Clear  
Wind Chill: 31°   Ceiling: Unl
Heat Index: 35°   Visibility: 10mi
Dew Point: 20°   Wind: 5mph
Humidity: 54%   Direction: 200°SSW
Pressure: 29.95"   Gusts: NA
Location:  46.9762°N, 111.977°W
Report Text: KHLN 201253Z 20004KT 10SM CLR 02/M07 A2995 RMK AO2 SLP179 T00171067
Loading
Personal Weather Stations






























Interactive Weather Map New forecast layout! Learn more

10-Day Weather Forecast

Advertisements
Track Severe Weather on mobile